createdAt,value
2023-01-11T00:02:24.312Z,1.98
2023-01-11T00:04:52.059Z,1.60
2023-01-11T00:07:19.783Z,2.00
2023-01-11T00:09:47.963Z,1.88
2023-01-11T00:12:17.067Z,1.60
2023-01-11T00:14:44.936Z,1.88
2023-01-11T00:17:12.647Z,1.83
2023-01-11T00:19:40.419Z,2.20
2023-01-11T00:22:08.189Z,2.35
2023-01-11T00:24:35.861Z,1.83
2023-01-11T00:27:03.548Z,1.77
2023-01-11T00:29:32.594Z,1.80
2023-01-11T00:32:00.305Z,1.80
2023-01-11T00:34:29.002Z,2.03
2023-01-11T00:36:56.771Z,1.85
2023-01-11T00:39:24.478Z,1.77
2023-01-11T00:42:09.623Z,1.75
2023-01-11T00:44:56.251Z,1.60
2023-01-11T00:47:41.547Z,1.65
2023-01-11T00:50:10.420Z,1.60
2023-01-11T00:52:38.102Z,1.20
2023-01-11T00:55:06.738Z,1.35
2023-01-11T00:57:34.483Z,1.48
2023-01-11T01:00:03.914Z,1.23
2023-01-11T01:02:33.833Z,1.33
2023-01-11T01:05:01.678Z,1.05
2023-01-11T01:07:29.393Z,1.00
2023-01-11T01:09:57.088Z,1.40
2023-01-11T01:12:38.661Z,1.40
2023-01-11T01:15:09.141Z,1.30
2023-01-11T01:17:36.860Z,1.40
2023-01-11T01:20:05.220Z,1.30
2023-01-11T01:22:33.173Z,1.30
2023-01-11T01:25:00.836Z,1.27
2023-01-11T01:27:28.550Z,1.13
2023-01-11T01:29:56.288Z,1.30
2023-01-11T01:32:25.387Z,1.10
2023-01-11T01:34:53.117Z,1.30
2023-01-11T01:37:20.752Z,1.25
2023-01-11T01:39:48.429Z,1.00
2023-01-11T01:42:17.306Z,1.00
2023-01-11T01:44:58.226Z,1.33
2023-01-11T01:47:33.067Z,1.40
2023-01-11T01:50:04.262Z,1.10
2023-01-11T01:52:34.703Z,1.17
2023-01-11T01:55:06.663Z,1.10
2023-01-11T01:57:38.649Z,1.23
2023-01-11T02:00:09.299Z,1.42
2023-01-11T02:02:40.062Z,1.50
2023-01-11T02:05:09.619Z,1.10
2023-01-11T02:07:40.578Z,1.77
2023-01-11T02:10:13.872Z,1.40
2023-01-11T02:12:46.042Z,1.40
2023-01-11T02:15:14.410Z,1.40
2023-01-11T02:17:43.411Z,1.50
2023-01-11T02:20:47.102Z,1.35
2023-01-11T02:24:00.931Z,1.65
2023-01-11T02:27:19.750Z,1.27
2023-01-11T02:29:59.146Z,1.40
2023-01-11T02:32:33.365Z,1.60
2023-01-11T02:35:13.972Z,1.52
2023-01-11T02:37:51.926Z,1.42
2023-01-11T02:40:25.611Z,1.48
2023-01-11T02:43:15.331Z,1.30
2023-01-11T02:45:53.552Z,1.38
2023-01-11T02:48:29.515Z,1.25
2023-01-11T02:51:05.341Z,1.40
2023-01-11T02:53:38.775Z,1.40
2023-01-11T02:56:11.248Z,1.60
2023-01-11T03:01:10.731Z,1.70
2023-01-11T03:03:38.390Z,1.60
2023-01-11T03:06:12.927Z,1.50
2023-01-11T03:09:13.747Z,1.70
2023-01-11T03:12:09.753Z,2.10
2023-01-11T03:14:47.502Z,2.30
2023-01-11T03:17:32.320Z,2.50
2023-01-11T03:20:08.524Z,2.50
2023-01-11T03:22:45.002Z,2.75
2023-01-11T03:25:22.161Z,3.35
2023-01-11T03:27:56.572Z,3.10
2023-01-11T03:30:30.815Z,3.08
2023-01-11T03:33:04.777Z,4.10
2023-01-11T03:35:40.762Z,3.80
2023-01-11T03:38:16.449Z,4.50
2023-01-11T03:40:49.270Z,4.88
2023-01-11T03:43:20.361Z,4.50
2023-01-11T03:45:53.388Z,5.18
2023-01-11T03:48:26.540Z,4.63
2023-01-11T03:50:56.351Z,4.32
2023-01-11T03:53:26.608Z,3.85
2023-01-11T03:55:57.076Z,4.00
2023-01-11T03:58:26.901Z,4.25
2023-01-11T04:00:56.077Z,3.00
2023-01-11T04:03:27.160Z,3.30
2023-01-11T04:06:00.376Z,3.30
2023-01-11T04:08:28.569Z,3.10
2023-01-11T04:10:56.997Z,3.50
2023-01-11T04:13:24.757Z,3.50
2023-01-11T04:15:53.845Z,4.47
2023-01-11T04:18:21.528Z,3.70
2023-01-11T04:20:50.618Z,4.35
2023-01-11T04:23:18.274Z,4.60
2023-01-11T04:25:46.956Z,4.53
2023-01-11T04:28:14.718Z,4.70
2023-01-11T04:30:42.458Z,4.57
2023-01-11T04:33:13.087Z,4.85
2023-01-11T04:35:40.935Z,6.85
2023-01-11T04:38:09.974Z,5.70
2023-01-11T04:40:37.631Z,6.80
2023-01-11T04:43:04.335Z,8.77
2023-01-11T04:45:32.302Z,7.60
2023-01-11T04:48:00.176Z,10.48
2023-01-11T04:50:28.677Z,11.77
2023-01-11T04:52:56.456Z,13.50
2023-01-11T04:55:25.556Z,16.42
2023-01-11T04:57:53.241Z,19.05
2023-01-11T05:00:21.481Z,21.42
2023-01-11T05:02:49.158Z,25.02
2023-01-11T05:05:16.825Z,31.90
2023-01-11T05:07:44.449Z,31.33
2023-01-11T05:10:12.662Z,19.58
2023-01-11T05:12:41.683Z,19.10
2023-01-11T05:15:10.574Z,15.68
2023-01-11T05:17:38.265Z,14.85
2023-01-11T05:20:08.224Z,13.77
2023-01-11T05:22:35.929Z,13.38
2023-01-11T05:25:03.641Z,11.73
2023-01-11T05:27:31.333Z,12.18
2023-01-11T05:30:00.461Z,13.38
2023-01-11T05:32:28.173Z,13.63
2023-01-11T05:34:55.920Z,17.50
2023-01-11T05:37:23.660Z,17.17
2023-01-11T05:39:51.373Z,19.15
2023-01-11T05:42:19.132Z,22.80
2023-01-11T05:45:04.344Z,27.77
2023-01-11T05:47:33.492Z,26.83
2023-01-11T05:50:01.240Z,21.35
2023-01-11T05:52:29.089Z,18.27
2023-01-11T05:54:56.782Z,14.77
2023-01-11T05:57:24.445Z,14.93
2023-01-11T05:59:52.153Z,14.43
2023-01-11T06:02:19.977Z,14.15
2023-01-11T06:04:49.157Z,9.82
2023-01-11T06:07:16.916Z,8.00
2023-01-11T06:09:44.669Z,6.78
2023-01-11T06:12:12.366Z,4.90
2023-01-11T06:14:40.113Z,4.75
2023-01-11T06:17:07.838Z,3.80
2023-01-11T06:19:35.687Z,2.75
2023-01-11T06:22:04.784Z,1.90
2023-01-11T06:24:32.510Z,1.60
2023-01-11T06:27:00.203Z,1.33
2023-01-11T06:29:27.886Z,1.17
2023-01-11T06:31:55.553Z,1.25
2023-01-11T06:34:23.264Z,1.10
2023-01-11T06:36:50.997Z,1.10
2023-01-11T06:39:20.235Z,1.00
2023-01-11T06:41:47.938Z,1.30
2023-01-11T06:44:15.595Z,1.60
2023-01-11T06:46:43.328Z,1.25
2023-01-11T06:49:11.925Z,1.20
2023-01-11T06:51:42.657Z,1.50
2023-01-11T06:54:10.368Z,1.60
2023-01-11T06:56:39.485Z,1.73
2023-01-11T06:59:07.255Z,2.00
2023-01-11T07:01:35.141Z,2.10
2023-01-11T07:04:02.897Z,2.28
2023-01-11T07:06:32.018Z,2.40
2023-01-11T07:08:59.715Z,2.55
2023-01-11T07:11:27.415Z,2.35
2023-01-11T07:13:56.547Z,2.35
2023-01-11T07:16:24.282Z,2.40
2023-01-11T07:18:51.939Z,2.38
2023-01-11T07:21:19.626Z,2.83
2023-01-11T07:23:48.775Z,2.17
2023-01-11T07:26:17.229Z,2.65
2023-01-11T07:28:45.355Z,2.60
2023-01-11T07:31:14.545Z,3.70
2023-01-11T07:33:42.248Z,3.50
2023-01-11T07:36:10.262Z,3.05
2023-01-11T07:38:37.947Z,2.90
2023-01-11T07:41:25.802Z,3.42
2023-01-11T07:43:52.678Z,3.30
2023-01-11T07:46:21.837Z,4.97
2023-01-11T07:48:49.773Z,4.28
2023-01-11T07:51:20.405Z,5.18
2023-01-11T07:53:48.421Z,5.10
2023-01-11T07:56:16.208Z,5.95
2023-01-11T07:58:43.930Z,6.15
2023-01-11T08:01:11.993Z,5.60
2023-01-11T08:03:41.157Z,4.45
2023-01-11T08:06:09.168Z,4.32
2023-01-11T08:08:36.850Z,4.47
2023-01-11T08:11:22.031Z,4.15
2023-01-11T08:14:07.361Z,4.40
2023-01-11T08:16:35.152Z,5.30
2023-01-11T08:19:04.296Z,5.07
2023-01-11T08:21:32.280Z,4.70
2023-01-11T08:24:00.478Z,3.92
2023-01-11T08:26:28.690Z,3.45
2023-01-11T08:28:56.627Z,3.20
2023-01-11T08:31:24.631Z,3.47
2023-01-11T08:33:52.863Z,3.53
2023-01-11T08:36:24.362Z,3.65
2023-01-11T08:38:55.347Z,3.30
2023-01-11T08:41:26.558Z,3.70
2023-01-11T08:43:54.714Z,3.80
2023-01-11T08:46:22.517Z,4.18
2023-01-11T08:48:50.254Z,3.55
2023-01-11T08:51:18.503Z,3.97
2023-01-11T08:53:47.558Z,3.30
2023-01-11T08:56:15.346Z,3.80
2023-01-11T08:58:43.051Z,3.50
2023-01-11T09:01:12.090Z,3.38
2023-01-11T09:03:39.878Z,3.63
2023-01-11T09:06:08.355Z,3.75
2023-01-11T09:08:36.093Z,3.92
2023-01-11T09:11:25.239Z,3.85
2023-01-11T09:13:52.887Z,3.80
2023-01-11T09:16:20.591Z,4.13
2023-01-11T09:18:48.334Z,3.70
2023-01-11T09:21:16.085Z,4.45
2023-01-11T09:23:45.166Z,4.28
2023-01-11T09:26:15.081Z,3.85
2023-01-11T09:28:43.169Z,4.50
2023-01-11T09:31:10.933Z,5.10
2023-01-11T09:33:39.245Z,3.92
2023-01-11T09:36:07.833Z,4.82
2023-01-11T09:38:37.925Z,4.30
2023-01-11T09:41:23.211Z,4.70
2023-01-11T09:44:04.545Z,4.53
2023-01-11T09:46:33.813Z,5.32
2023-01-11T09:49:03.467Z,6.20
2023-01-11T09:51:37.441Z,5.50
2023-01-11T09:54:07.707Z,4.63
2023-01-11T09:56:42.404Z,4.20
2023-01-11T09:59:20.884Z,4.93
2023-01-11T10:01:54.402Z,4.45
2023-01-11T10:04:41.704Z,4.35
2023-01-11T10:07:23.034Z,4.38
2023-01-11T10:18:27.479Z,4.28
2023-01-11T10:19:33.571Z,3.88
2023-01-11T10:22:00.216Z,3.80
2023-01-11T10:24:32.938Z,4.45
2023-01-11T10:27:04.530Z,4.30
2023-01-11T10:29:46.157Z,4.17
2023-01-11T10:32:45.623Z,3.65
2023-01-11T10:35:41.553Z,3.95
2023-01-11T10:38:31.548Z,4.50
2023-01-11T10:41:08.419Z,4.38
2023-01-11T10:43:41.451Z,4.25
2023-01-11T10:46:14.112Z,4.45
2023-01-11T10:48:45.275Z,3.95
2023-01-11T10:51:24.803Z,4.35
2023-01-11T10:54:02.827Z,4.28
2023-01-11T10:57:03.584Z,4.72
2023-01-11T10:59:50.916Z,4.45
2023-01-11T11:02:34.177Z,4.05
2023-01-11T11:05:14.681Z,4.22
2023-01-11T11:07:51.945Z,4.07
2023-01-11T11:10:24.911Z,3.90
2023-01-11T11:13:03.541Z,3.65
2023-01-11T11:15:39.154Z,4.15
2023-01-11T11:18:06.913Z,4.22
2023-01-11T11:20:36.218Z,3.70
2023-01-11T11:23:04.024Z,4.00
2023-01-11T11:25:34.076Z,3.42
2023-01-11T11:28:04.702Z,3.80
2023-01-11T11:30:37.897Z,3.70
2023-01-11T11:33:09.290Z,3.17
2023-01-11T11:35:42.037Z,3.80
2023-01-11T11:38:29.954Z,3.65
2023-01-11T11:40:59.746Z,4.00
2023-01-11T11:43:28.680Z,4.18
2023-01-11T11:45:58.840Z,4.38
2023-01-11T11:48:29.043Z,4.28
2023-01-11T11:51:00.337Z,4.15
2023-01-11T11:53:43.058Z,4.93
2023-01-11T11:58:47.793Z,4.30
2023-01-11T12:01:26.796Z,4.05
2023-01-11T12:03:58.514Z,4.40
2023-01-11T12:06:29.537Z,4.35
2023-01-11T12:08:59.265Z,4.55
2023-01-11T12:11:32.831Z,5.25
2023-01-11T12:14:05.180Z,5.28
2023-01-11T12:16:36.917Z,5.05
2023-01-11T12:19:04.717Z,5.65
2023-01-11T12:21:33.811Z,4.97
2023-01-11T12:24:19.149Z,5.65
2023-01-11T12:26:58.990Z,5.60
2023-01-11T12:29:41.328Z,6.20
2023-01-11T12:32:21.372Z,7.53
2023-01-11T12:35:05.872Z,6.72
2023-01-11T12:38:05.369Z,5.80
2023-01-11T12:40:41.829Z,6.03
2023-01-11T12:43:25.328Z,5.53
2023-01-11T12:46:02.188Z,5.93
2023-01-11T12:48:41.775Z,5.55
2023-01-11T12:51:23.778Z,4.90
2023-01-11T12:54:06.276Z,4.80
2023-01-11T12:56:51.072Z,4.43
2023-01-11T12:59:33.530Z,4.30
2023-01-11T13:02:14.099Z,4.10
2023-01-11T13:05:00.042Z,4.10
2023-01-11T13:07:42.309Z,4.47
2023-01-11T13:10:44.323Z,4.43
2023-01-11T13:13:17.083Z,4.07
2023-01-11T13:15:53.642Z,4.55
2023-01-11T13:18:29.925Z,4.13
2023-01-11T13:21:02.866Z,3.85
2023-01-11T13:23:41.906Z,3.72
2023-01-11T13:26:20.738Z,3.95
2023-01-11T13:28:54.234Z,3.97
2023-01-11T13:31:24.030Z,4.15
2023-01-11T13:33:57.830Z,3.95
2023-01-11T13:36:31.355Z,3.92
2023-01-11T13:39:04.227Z,4.22
2023-01-11T13:41:39.087Z,3.97
2023-01-11T13:44:13.903Z,5.85
2023-01-11T13:46:52.687Z,4.10
2023-01-11T13:49:35.531Z,4.07
2023-01-11T13:52:11.971Z,3.80
2023-01-11T13:54:47.311Z,3.42
2023-01-11T13:57:25.453Z,3.60
2023-01-11T13:59:59.356Z,3.70
2023-01-11T14:02:38.338Z,3.55
2023-01-11T14:05:14.766Z,3.65
2023-01-11T14:08:00.699Z,3.92
2023-01-11T14:10:40.727Z,5.00
2023-01-11T14:13:41.796Z,4.10
2023-01-11T14:16:20.854Z,3.83
2023-01-11T14:18:55.199Z,5.25
2023-01-11T14:21:29.600Z,5.97
2023-01-11T14:23:58.256Z,5.93
2023-01-11T14:26:52.506Z,5.95
2023-01-11T14:29:41.479Z,4.43
2023-01-11T14:32:23.298Z,3.80
2023-01-11T14:35:17.203Z,4.10
2023-01-11T14:38:23.922Z,3.75
2023-01-11T14:41:15.140Z,3.50
2023-01-11T14:44:01.138Z,3.35
2023-01-11T14:46:58.914Z,3.67
2023-01-11T14:49:49.226Z,3.80
2023-01-11T14:52:34.546Z,3.30
2023-01-11T14:55:15.351Z,3.80
2023-01-11T14:57:44.808Z,3.50
2023-01-11T15:00:50.965Z,3.20
2023-01-11T15:03:48.152Z,4.38
2023-01-11T15:06:20.297Z,5.18
2023-01-11T15:08:50.896Z,5.30
2023-01-11T15:11:45.469Z,3.97
2023-01-11T15:14:29.631Z,3.70
2023-01-11T15:17:18.534Z,4.13
2023-01-11T15:19:50.127Z,4.05
2023-01-11T15:22:25.473Z,4.20
2023-01-11T15:24:59.924Z,3.42
2023-01-11T15:27:32.907Z,4.35
2023-01-11T15:30:01.322Z,4.10
2023-01-11T15:32:31.306Z,4.35
2023-01-11T15:35:30.524Z,3.78
2023-01-11T15:38:05.494Z,4.22
2023-01-11T15:40:37.985Z,3.90
2023-01-11T15:46:51.328Z,3.88
2023-01-11T15:50:01.447Z,5.50
2023-01-11T15:53:21.217Z,4.82
2023-01-11T15:56:24.422Z,4.30
2023-01-11T15:59:20.865Z,4.10
2023-01-11T16:02:22.131Z,3.97
2023-01-11T16:04:52.696Z,4.28
2023-01-11T16:07:29.360Z,4.88
2023-01-11T16:10:41.727Z,4.97
2023-01-11T16:13:36.719Z,4.57
2023-01-11T16:16:12.238Z,3.72
2023-01-11T16:18:43.883Z,3.92
2023-01-11T16:21:19.486Z,4.40
2023-01-11T16:23:47.489Z,4.50
2023-01-11T16:26:20.710Z,3.88
2023-01-11T16:28:52.041Z,4.55
2023-01-11T16:31:20.497Z,7.45
2023-01-11T16:33:49.835Z,6.60
2023-01-11T16:36:20.983Z,4.78
2023-01-11T16:39:01.599Z,4.97
2023-01-11T16:41:36.852Z,3.90
2023-01-11T16:44:09.016Z,3.75
2023-01-11T16:47:07.696Z,4.15
2023-01-11T16:49:35.645Z,4.07
2023-01-11T16:52:40.064Z,4.30
2023-01-11T16:55:17.325Z,6.07
2023-01-11T16:57:48.767Z,8.18
2023-01-11T17:00:25.288Z,4.25
2023-01-11T17:03:02.949Z,3.47
2023-01-11T17:05:30.760Z,4.07
2023-01-11T17:07:58.536Z,4.40
2023-01-11T17:10:29.271Z,10.73
2023-01-11T17:13:52.115Z,4.20
2023-01-11T17:16:24.857Z,3.88
2023-01-11T17:18:54.448Z,3.15
2023-01-11T17:21:28.777Z,3.15
2023-01-11T17:24:00.878Z,5.07
2023-01-11T17:26:33.797Z,4.15
2023-01-11T17:29:02.007Z,4.40
2023-01-11T17:31:34.111Z,4.60
2023-01-11T17:34:05.338Z,3.90
2023-01-11T17:36:34.052Z,2.95
2023-01-11T17:39:03.872Z,3.13
2023-01-11T17:41:49.867Z,3.25
2023-01-11T17:44:38.396Z,3.53
2023-01-11T17:47:09.352Z,3.08
2023-01-11T17:49:39.034Z,3.28
2023-01-11T17:52:12.004Z,3.38
2023-01-11T17:54:39.927Z,3.65
2023-01-11T17:57:07.972Z,3.55
2023-01-11T17:59:35.867Z,3.35
2023-01-11T18:02:12.225Z,4.22
2023-01-11T18:04:40.909Z,4.38
2023-01-11T18:07:15.763Z,3.90
2023-01-11T18:09:47.124Z,3.95
2023-01-11T18:12:18.321Z,4.63
2023-01-11T18:14:51.719Z,6.22
2023-01-11T18:17:36.225Z,5.03
2023-01-11T18:20:25.866Z,3.40
2023-01-11T18:23:04.484Z,3.58
2023-01-11T18:25:35.064Z,3.38
2023-01-11T18:28:34.083Z,3.20
2023-01-11T18:31:02.559Z,3.78
2023-01-11T18:33:34.965Z,3.25
2023-01-11T18:36:05.322Z,3.45
2023-01-11T18:38:34.861Z,3.67
2023-01-11T18:41:26.506Z,3.72
2023-01-11T18:43:55.496Z,3.38
2023-01-11T18:46:23.592Z,3.92
2023-01-11T18:48:53.139Z,4.75
2023-01-11T18:51:29.209Z,4.43
2023-01-11T18:53:56.935Z,6.40
2023-01-11T18:56:24.736Z,4.50
2023-01-11T18:58:52.565Z,4.20
2023-01-11T19:01:20.595Z,4.22
2023-01-11T19:03:48.964Z,4.35
2023-01-11T19:06:21.163Z,4.10
2023-01-11T19:08:48.959Z,3.67
2023-01-11T19:11:17.019Z,4.85
2023-01-11T19:13:46.720Z,4.30
2023-01-11T19:16:16.891Z,4.03
2023-01-11T19:18:45.881Z,3.78
2023-01-11T19:21:14.254Z,5.00
2023-01-11T19:23:43.474Z,4.38
2023-01-11T19:26:11.443Z,3.83
2023-01-11T19:28:39.369Z,3.53
2023-01-11T19:31:08.117Z,4.05
2023-01-11T19:33:36.065Z,3.88
2023-01-11T19:36:06.803Z,4.45
2023-01-11T19:38:34.797Z,4.63
2023-01-11T19:41:07.443Z,5.50
2023-01-11T19:43:35.481Z,8.43
2023-01-11T19:46:04.099Z,4.47
2023-01-11T19:48:32.833Z,7.53
2023-01-11T19:51:05.593Z,4.70
2023-01-11T19:53:33.808Z,5.53
2023-01-11T19:56:03.142Z,12.02
2023-01-11T19:58:33.391Z,5.50
2023-01-11T20:01:02.305Z,4.72
2023-01-11T20:03:30.140Z,4.55
2023-01-11T20:06:07.635Z,10.55
2023-01-11T20:08:38.550Z,10.40
2023-01-11T20:11:07.268Z,11.45
2023-01-11T20:13:36.623Z,9.90
2023-01-11T20:16:08.971Z,9.40
2023-01-11T20:18:36.973Z,4.38
2023-01-11T20:21:07.839Z,6.90
2023-01-11T20:23:36.173Z,11.38
2023-01-11T20:26:08.715Z,13.13
2023-01-11T20:31:07.877Z,4.65
2023-01-11T20:33:35.753Z,4.78
2023-01-11T20:36:11.136Z,4.65
2023-01-11T20:38:41.847Z,6.05
2023-01-11T20:41:10.981Z,4.97
2023-01-11T20:43:40.917Z,4.63
2023-01-11T20:46:08.744Z,4.50
2023-01-11T20:48:36.708Z,4.68
2023-01-11T20:51:04.861Z,3.83
2023-01-11T20:53:32.692Z,4.35
2023-01-11T20:56:00.440Z,3.92
2023-01-11T20:58:28.210Z,3.53
2023-01-11T21:01:04.519Z,3.50
2023-01-11T21:03:32.542Z,4.45
2023-01-11T21:06:03.039Z,3.83
2023-01-11T21:08:31.001Z,3.42
2023-01-11T21:11:05.060Z,4.00
2023-01-11T21:13:32.979Z,3.80
2023-01-11T21:16:08.810Z,4.07
2023-01-11T21:18:37.398Z,4.97
2023-01-11T21:21:05.733Z,4.82
2023-01-11T21:23:33.497Z,4.05
2023-01-11T21:26:01.218Z,4.15
2023-01-11T21:28:28.967Z,4.35
2023-01-11T21:31:02.241Z,4.25
2023-01-11T21:33:31.593Z,4.55
2023-01-11T21:36:03.227Z,4.20
2023-01-11T21:38:34.703Z,3.87
2023-01-11T21:41:06.895Z,3.88
2023-01-11T21:43:34.853Z,3.25
2023-01-11T21:46:03.800Z,3.63
2023-01-11T21:48:32.971Z,3.40
2023-01-11T21:51:01.169Z,3.65
2023-01-11T21:53:32.073Z,3.42
2023-01-11T21:56:03.104Z,3.50
2023-01-11T21:58:34.350Z,3.33
2023-01-11T22:01:10.583Z,3.25
2023-01-11T22:03:42.174Z,3.20
2023-01-11T22:06:10.562Z,3.13
2023-01-11T22:08:39.773Z,2.90
2023-01-11T22:11:14.377Z,2.83
2023-01-11T22:13:55.145Z,2.90
2023-01-11T22:16:29.692Z,2.97
2023-01-11T22:18:59.376Z,2.97
2023-01-11T22:21:27.522Z,2.72
2023-01-11T22:23:56.590Z,3.10
2023-01-11T22:26:25.137Z,2.60
2023-01-11T22:29:15.145Z,2.97
2023-01-11T22:31:45.667Z,2.90
2023-01-11T22:34:16.338Z,2.97
2023-01-11T22:36:45.306Z,2.80
2023-01-11T22:39:14.167Z,2.53
2023-01-11T22:41:42.003Z,3.03
2023-01-11T22:44:10.838Z,2.33
2023-01-11T22:46:39.252Z,2.85
2023-01-11T22:49:07.561Z,2.35
2023-01-11T22:51:37.059Z,2.67
2023-01-11T22:54:05.456Z,2.80
2023-01-11T22:56:33.530Z,2.45
2023-01-11T22:59:02.013Z,2.65
2023-01-11T23:01:32.379Z,2.72
2023-01-11T23:04:00.774Z,3.03
2023-01-11T23:06:30.219Z,3.03
2023-01-11T23:09:00.197Z,3.17
2023-01-11T23:11:47.142Z,3.55
2023-01-11T23:14:16.923Z,3.60
2023-01-11T23:16:45.276Z,3.33
2023-01-11T23:19:14.693Z,3.45
2023-01-11T23:21:43.573Z,2.97
2023-01-11T23:24:14.009Z,3.58
2023-01-11T23:26:41.936Z,3.83
2023-01-11T23:29:09.651Z,3.30
2023-01-11T23:31:37.424Z,3.60
2023-01-11T23:34:06.938Z,4.18
2023-01-11T23:36:36.538Z,3.95
2023-01-11T23:39:05.273Z,3.70
2023-01-11T23:41:51.999Z,3.55
2023-01-11T23:44:19.847Z,3.90
2023-01-11T23:47:05.228Z,3.70
2023-01-11T23:49:33.446Z,3.80
2023-01-11T23:52:14.090Z,4.25
2023-01-11T23:54:42.821Z,5.00
2023-01-11T23:57:12.598Z,4.28
2023-01-11T23:59:40.455Z,4.60
